Time;durP1;ratioP1;P1;durP2;ratioP2;P2;SDS_P1;SDS_P2;PMS_P1;PMS_P2;Temp;Humidity;BMP_temperature;BMP_pressure;BME280_temperature;BME280_humidity;BME280_pressure;Samples;Min_cycle;Max_cycle;Signal;HPM_P1;HPM_P2
2021/11/29 00:00:35;;;;;;;52.35;34.40;;;;;;;-0.11;96.82;99664.56;5055350;28;20054;-77
2021/11/29 00:03:07;;;;;;;52.25;33.25;;;;;;;-0.17;97.20;99677.03;5056769;28;20049;-77
2021/11/29 00:05:33;;;;;;;53.72;33.65;;;;;;;-0.26;97.30;99675.94;5057068;28;20057;-78
2021/11/29 00:08:02;;;;;;;54.22;31.55;;;;;;;-0.23;97.35;99678.31;5053904;28;20053;-76
2021/11/29 00:10:29;;;;;;;54.30;33.35;;;;;;;-0.24;96.82;99681.81;5049808;28;20053;-76
2021/11/29 00:12:56;;;;;;;54.40;33.20;;;;;;;-0.16;96.65;99678.69;5049002;28;20081;-76
2021/11/29 00:15:25;;;;;;;52.85;32.95;;;;;;;-0.20;96.34;99685.81;5045538;28;20053;-76
2021/11/29 00:17:52;;;;;;;54.45;33.25;;;;;;;-0.17;96.48;99682.19;5037444;28;20081;-76
2021/11/29 00:20:19;;;;;;;51.60;33.70;;;;;;;-0.28;96.69;99684.72;5036798;28;20137;-76
2021/11/29 00:22:46;;;;;;;52.88;31.80;;;;;;;-0.18;96.88;99686.50;5036802;28;20136;-75
2021/11/29 00:25:13;;;;;;;55.08;34.03;;;;;;;-0.25;96.56;99685.31;5037311;28;20088;-76
2021/11/29 00:27:41;;;;;;;55.13;33.60;;;;;;;-0.26;96.66;99685.41;5036410;28;20085;-75
2021/11/29 00:30:11;;;;;;;55.63;35.38;;;;;;;-0.35;97.38;99699.75;5036380;28;20228;-75
2021/11/29 00:32:40;;;;;;;53.88;34.35;;;;;;;-0.36;96.79;99698.09;5037202;28;20049;-76
2021/11/29 00:35:07;;;;;;;56.20;32.85;;;;;;;-0.45;97.22;99699.56;5038141;28;20512;-75
2021/11/29 00:37:34;;;;;;;53.17;31.27;;;;;;;-0.48;97.71;99709.28;5037976;28;20080;-74
2021/11/29 00:40:01;;;;;;;49.03;32.38;;;;;;;-0.56;96.77;99698.72;5037971;28;20105;-75
2021/11/29 00:42:28;;;;;;;63.72;36.58;;;;;;;-0.63;97.74;99711.16;5037651;28;20050;-74
2021/11/29 00:44:54;;;;;;;57.13;35.33;;;;;;;-0.43;97.47;99707.19;5036880;28;20124;-74
2021/11/29 00:47:21;;;;;;;58.90;35.10;;;;;;;-0.35;96.70;99700.56;5036057;28;20132;-74
2021/11/29 00:49:49;;;;;;;56.58;37.15;;;;;;;-0.25;97.07;99712.75;5036047;28;20133;-75
2021/11/29 00:52:16;;;;;;;55.78;35.15;;;;;;;-0.20;96.70;99714.09;5036126;28;20431;-74
2021/11/29 00:54:42;;;;;;;51.03;32.17;;;;;;;-0.17;96.59;99702.75;5035786;28;20049;-75
2021/11/29 00:57:09;;;;;;;44.80;29.20;;;;;;;-0.17;95.97;99707.91;5035799;28;20455;-75
2021/11/29 00:59:36;;;;;;;50.97;31.15;;;;;;;-0.26;96.23;99708.56;5037365;28;20431;-76
2021/11/29 01:02:02;;;;;;;52.05;32.40;;;;;;;-0.27;96.61;99706.91;5038638;28;20407;-76
2021/11/29 01:04:29;;;;;;;52.80;33.72;;;;;;;-0.13;96.69;99714.47;5038214;28;20132;-75
2021/11/29 01:06:57;;;;;;;51.72;32.53;;;;;;;-0.16;96.50;99709.53;5035902;28;20128;-76
2021/11/29 01:09:24;;;;;;;47.47;30.67;;;;;;;-0.23;95.92;99724.59;5036620;28;20156;-76
2021/11/29 01:11:50;;;;;;;43.03;29.02;;;;;;;-0.20;96.13;99723.53;5037261;28;20145;-75
2021/11/29 01:14:17;;;;;;;45.15;28.63;;;;;;;-0.16;95.74;99724.97;5038559;28;20123;-74
2021/11/29 01:16:44;;;;;;;42.75;27.88;;;;;;;-0.13;95.46;99728.16;5036800;28;20081;-76
2021/11/29 01:19:10;;;;;;;39.72;26.52;;;;;;;-0.03;95.23;99736.03;5035414;28;20092;-75
2021/11/29 01:21:37;;;;;;;39.90;27.90;;;;;;;0.02;95.25;99728.78;5035352;28;20144;-75
2021/11/29 01:24:06;;;;;;;39.28;24.90;;;;;;;0.01;94.95;99734.84;5035445;28;20096;-75
2021/11/29 01:26:32;;;;;;;46.53;28.00;;;;;;;0.02;95.09;99727.94;5035316;28;20137;-75
2021/11/29 01:28:59;;;;;;;42.25;27.67;;;;;;;0.03;95.37;99742.44;5035322;28;20055;-75
2021/11/29 01:31:26;;;;;;;43.03;27.02;;;;;;;0.07;94.86;99736.97;5035700;28;20136;-76
2021/11/29 01:33:53;;;;;;;44.33;26.98;;;;;;;0.03;95.61;99745.84;5035465;28;20136;-74
2021/11/29 01:36:19;;;;;;;37.67;25.77;;;;;;;0.02;95.13;99743.38;5035104;28;20127;-73
2021/11/29 01:38:46;;;;;;;37.67;25.05;;;;;;;0.08;94.94;99743.75;5035412;28;20151;-75
2021/11/29 01:41:16;;;;;;;40.92;25.88;;;;;;;0.11;94.81;99755.59;5035560;28;20426;-74
2021/11/29 01:43:43;;;;;;;32.65;23.88;;;;;;;0.09;94.61;99749.72;5035434;28;20053;-75
2021/11/29 01:46:10;;;;;;;38.70;24.17;;;;;;;0.11;94.46;99756.41;5035494;28;20534;-75
2021/11/29 01:48:37;;;;;;;33.53;24.33;;;;;;;0.04;94.46;99752.63;5034757;28;20137;-75
2021/11/29 01:51:04;;;;;;;35.10;24.02;;;;;;;0.01;94.00;99752.84;5034947;28;20113;-75
2021/11/29 01:53:32;;;;;;;32.58;23.60;;;;;;;-0.02;94.36;99763.38;5035392;28;20128;-74
2021/11/29 01:55:59;;;;;;;32.50;21.85;;;;;;;0.05;94.58;99759.41;5035556;28;20132;-75
2021/11/29 01:58:29;;;;;;;27.65;21.55;;;;;;;0.06;93.91;99753.34;5035152;28;20528;-75
2021/11/29 02:00:58;;;;;;;33.65;22.10;;;;;;;0.07;93.83;99777.31;5035016;28;20136;-75
2021/11/29 02:03:25;;;;;;;34.05;22.15;;;;;;;0.03;93.86;99766.41;5035262;28;20133;-75
2021/11/29 02:05:52;;;;;;;30.48;20.30;;;;;;;-0.07;94.41;99768.84;5036190;28;20136;-75
2021/11/29 02:08:20;;;;;;;31.25;21.45;;;;;;;-0.15;94.68;99776.28;5036661;28;20442;-75
2021/11/29 02:10:47;;;;;;;31.85;20.48;;;;;;;-0.13;93.86;99773.59;5035716;28;20095;-76
2021/11/29 02:13:17;;;;;;;33.78;20.83;;;;;;;-0.13;94.27;99776.19;5035905;28;20128;-76
2021/11/29 02:15:50;;;;;;;33.75;21.52;;;;;;;-0.14;94.82;99772.78;5037175;28;20128;-75
2021/11/29 02:18:17;;;;;;;30.85;21.98;;;;;;;-0.18;94.94;99783.41;5035950;28;20053;-75
2021/11/29 02:20:59;;;;;;;30.52;21.10;;;;;;;-0.19;95.05;99781.75;5034753;28;20132;-73
2021/11/29 02:23:26;;;;;;;31.42;21.73;;;;;;;-0.22;95.01;99781.97;5034546;28;20053;-76
2021/11/29 02:25:53;;;;;;;28.90;20.77;;;;;;;-0.20;94.48;99796.34;5034666;28;20081;-73
2021/11/29 02:28:20;;;;;;;33.08;23.02;;;;;;;-0.21;94.44;99793.91;5034215;28;20045;-74
2021/11/29 02:30:48;;;;;;;30.00;21.60;;;;;;;-0.30;94.73;99799.69;5034934;28;20458;-74
2021/11/29 02:33:15;;;;;;;35.78;22.00;;;;;;;-0.31;95.08;99803.19;5034838;28;20049;-74
2021/11/29 02:35:42;;;;;;;27.27;20.52;;;;;;;-0.38;95.40;99802.78;5034386;28;20049;-75
2021/11/29 02:38:10;;;;;;;33.33;23.33;;;;;;;-0.44;95.38;99809.16;5034524;28;20467;-75
2021/11/29 02:40:37;;;;;;;30.98;22.00;;;;;;;-0.57;95.93;99803.25;5035085;28;20091;-75
2021/11/29 02:43:04;;;;;;;30.85;21.58;;;;;;;-0.54;95.27;99805.59;5035719;28;20089;-76
2021/11/29 02:45:31;;;;;;;26.50;20.95;;;;;;;-0.51;95.44;99807.97;5034734;28;20409;-75
2021/11/29 02:47:58;;;;;;;31.92;21.63;;;;;;;-0.55;95.93;99806.53;5034209;28;20053;-75
2021/11/29 02:50:24;;;;;;;28.42;20.33;;;;;;;-0.55;95.87;99813.41;5034579;28;20411;-76
2021/11/29 02:52:51;;;;;;;28.48;20.17;;;;;;;-0.58;95.42;99811.06;5035058;28;20128;-77
2021/11/29 02:55:19;;;;;;;25.67;18.52;;;;;;;-0.49;95.75;99805.28;5035974;28;20046;-77
2021/11/29 02:57:46;;;;;;;29.17;18.85;;;;;;;-0.46;95.15;99815.34;5034111;28;20136;-75
2021/11/29 03:02:41;;;;;;;23.83;16.58;;;;;;;-0.20;95.29;99821.25;5046198;28;20052;-44
2021/11/29 03:05:09;;;;;;;23.00;16.33;;;;;;;-0.05;94.86;99817.59;5030806;28;20100;-48
2021/11/29 03:07:36;;;;;;;23.48;16.17;;;;;;;0.00;94.63;99816.31;5030427;28;20450;-45
2021/11/29 03:10:04;;;;;;;28.20;17.73;;;;;;;0.13;95.35;99813.72;5030605;28;20046;-46
2021/11/29 03:12:32;;;;;;;21.05;16.17;;;;;;;0.15;94.66;99805.88;5030525;28;20469;-46
2021/11/29 03:14:59;;;;;;;23.25;16.77;;;;;;;0.17;94.69;99810.00;5030927;28;20131;-50
2021/11/29 03:17:26;;;;;;;21.48;16.33;;;;;;;0.25;95.04;99819.72;5031237;28;20475;-46
2021/11/29 03:19:54;;;;;;;22.20;15.45;;;;;;;0.25;94.30;99812.84;5031464;28;20447;-46
2021/11/29 03:22:21;;;;;;;20.30;15.02;;;;;;;0.26;94.15;99817.06;5032073;28;20419;-50
2021/11/29 03:24:49;;;;;;;25.88;16.45;;;;;;;0.25;94.81;99812.84;5034734;28;20053;-46
2021/11/29 03:27:16;;;;;;;21.10;14.75;;;;;;;0.31;94.34;99814.97;5035054;28;20455;-49
2021/11/29 03:29:48;;;;;;;22.55;15.65;;;;;;;0.26;94.60;99806.75;5034787;28;20053;-46
2021/11/29 03:32:18;;;;;;;21.67;12.90;;;;;;;0.31;94.72;99807.25;5034829;28;20067;-47
2021/11/29 03:34:45;;;;;;;22.17;14.38;;;;;;;0.28;94.15;99817.75;5034707;28;20053;-47
2021/11/29 03:37:12;;;;;;;19.65;13.15;;;;;;;0.34;94.10;99821.66;5035013;28;20438;-47
2021/11/29 03:39:39;;;;;;;17.85;12.27;;;;;;;0.35;94.11;99825.03;5034836;28;20045;-47
2021/11/29 03:42:07;;;;;;;16.40;12.77;;;;;;;0.29;93.75;99839.16;5034618;28;20067;-48
2021/11/29 03:44:36;;;;;;;23.80;16.90;;;;;;;0.25;94.33;99840.31;5034571;28;20119;-47
2021/11/29 03:47:08;;;;;;;22.20;17.67;;;;;;;0.25;94.58;99837.75;5034291;28;20060;-49
2021/11/29 03:49:35;;;;;;;26.70;18.15;;;;;;;0.23;94.48;99832.72;5034400;28;20053;-47
2021/11/29 03:52:02;;;;;;;25.55;17.80;;;;;;;0.15;94.49;99837.56;5033862;28;20049;-49
2021/11/29 03:54:29;;;;;;;24.75;18.77;;;;;;;0.17;94.64;99835.72;5034039;28;20111;-45
2021/11/29 03:56:56;;;;;;;26.48;19.77;;;;;;;0.13;94.39;99846.31;5033887;28;20061;-49
2021/11/29 03:59:23;;;;;;;28.73;19.63;;;;;;;0.10;94.71;99844.78;5033979;28;20049;-46
2021/11/29 04:01:50;;;;;;;31.55;20.58;;;;;;;0.05;94.55;99859.72;5033857;28;20057;-49
2021/11/29 04:04:18;;;;;;;28.10;18.98;;;;;;;0.00;94.43;99854.91;5033911;28;20050;-50
2021/11/29 04:06:46;;;;;;;25.42;17.23;;;;;;;0.01;94.79;99858.28;5033681;28;20087;-46
2021/11/29 04:09:13;;;;;;;25.80;17.83;;;;;;;-0.07;94.77;99860.63;5033414;28;20100;-48
2021/11/29 04:11:40;;;;;;;22.58;17.08;;;;;;;-0.05;94.64;99861.31;5033594;28;20054;-46
2021/11/29 04:14:06;;;;;;;25.38;16.75;;;;;;;-0.10;95.19;99847.97;5033688;28;20061;-47
2021/11/29 04:16:33;;;;;;;25.17;15.50;;;;;;;-0.12;95.34;99855.78;5033455;28;20476;-47
2021/11/29 04:19:00;;;;;;;23.23;15.65;;;;;;;-0.15;94.87;99858.56;5033507;28;20060;-46
2021/11/29 04:21:28;;;;;;;21.42;14.98;;;;;;;-0.17;94.61;99860.44;5033651;28;20555;-46
2021/11/29 04:23:55;;;;;;;19.15;14.82;;;;;;;-0.21;95.11;99863.31;5033585;28;20053;-47
2021/11/29 04:26:22;;;;;;;19.50;13.85;;;;;;;-0.22;94.82;99861.66;5033530;28;20088;-48
2021/11/29 04:28:52;;;;;;;19.67;13.65;;;;;;;-0.24;95.42;99866.91;5033638;28;20057;-50
2021/11/29 04:31:19;;;;;;;22.38;14.10;;;;;;;-0.22;95.54;99864.25;5033383;28;20096;-45
2021/11/29 04:33:46;;;;;;;21.20;14.73;;;;;;;-0.27;95.22;99867.13;5033090;28;20120;-47
2021/11/29 04:36:14;;;;;;;24.33;15.43;;;;;;;-0.21;95.63;99865.88;5032914;28;20057;-48
2021/11/29 04:38:42;;;;;;;22.52;15.40;;;;;;;-0.19;95.66;99864.84;5033357;28;20046;-45
2021/11/29 04:41:10;;;;;;;20.20;14.63;;;;;;;-0.18;94.93;99857.97;5033283;28;20495;-46
2021/11/29 04:43:37;;;;;;;19.35;13.95;;;;;;;-0.16;94.84;99869.78;5033004;28;20052;-47
2021/11/29 04:46:03;;;;;;;23.27;15.50;;;;;;;-0.10;95.44;99881.41;5032988;28;20081;-46
2021/11/29 04:48:31;;;;;;;20.17;14.95;;;;;;;-0.05;95.04;99880.16;5032909;28;20045;-47
2021/11/29 04:50:58;;;;;;;25.05;15.13;;;;;;;-0.08;95.19;99876.97;5032996;28;20057;-45
2021/11/29 04:53:26;;;;;;;22.40;15.85;;;;;;;0.04;95.45;99886.38;5033061;28;20411;-45
2021/11/29 04:55:54;;;;;;;26.25;16.38;;;;;;;0.06;94.75;99879.38;5032936;28;20053;-46
2021/11/29 04:58:21;;;;;;;24.05;17.20;;;;;;;0.05;95.47;99874.34;5032787;28;20472;-48
2021/11/29 05:00:51;;;;;;;28.25;16.02;;;;;;;-0.02;95.49;99879.94;5032761;28;20045;-48
2021/11/29 05:03:18;;;;;;;23.40;16.17;;;;;;;0.00;95.13;99890.13;5032869;28;20041;-47
2021/11/29 05:05:46;;;;;;;22.95;16.45;;;;;;;-0.12;95.77;99881.50;5032513;28;20056;-47
2021/11/29 05:08:13;;;;;;;23.85;16.77;;;;;;;-0.10;95.63;99886.53;5032628;28;20069;-47
2021/11/29 05:10:40;;;;;;;25.88;17.30;;;;;;;-0.09;95.43;99891.56;5032273;28;20515;-47
2021/11/29 05:13:09;;;;;;;28.80;17.17;;;;;;;-0.11;95.85;99898.56;5032645;28;20042;-44
2021/11/29 05:15:36;;;;;;;29.85;19.27;;;;;;;-0.13;95.89;99894.47;5032195;28;20075;-49
2021/11/29 05:18:03;;;;;;;27.83;20.15;;;;;;;-0.10;96.13;99889.13;5032735;28;20072;-45
2021/11/29 05:20:30;;;;;;;34.17;21.30;;;;;;;-0.15;95.96;99883.47;5032520;28;20061;-44
2021/11/29 05:22:56;;;;;;;35.08;23.90;;;;;;;-0.07;96.05;99891.47;5033366;28;20049;-46
2021/11/29 05:25:23;;;;;;;33.53;22.50;;;;;;;0.01;95.76;99889.16;5033708;28;20407;-45
2021/11/29 05:27:50;;;;;;;35.58;23.38;;;;;;;0.04;95.82;99908.69;5032640;28;20111;-45
2021/11/29 05:30:18;;;;;;;35.60;22.63;;;;;;;0.06;95.79;99915.38;5032930;28;20053;-49
2021/11/29 05:32:45;;;;;;;35.22;23.63;;;;;;;0.03;95.67;99928.47;5032675;28;20052;-47
2021/11/29 05:35:12;;;;;;;35.35;23.65;;;;;;;0.09;95.78;99925.47;5032524;28;20388;-45
2021/11/29 05:37:39;;;;;;;35.38;24.48;;;;;;;0.09;95.47;99920.31;5032266;28;20050;-45
2021/11/29 05:40:07;;;;;;;35.53;23.50;;;;;;;0.11;95.75;99923.63;5028861;28;20061;-45
2021/11/29 05:42:34;;;;;;;34.20;24.00;;;;;;;0.09;96.19;99930.63;5030731;28;20107;-46
2021/11/29 05:45:05;;;;;;;39.35;26.05;;;;;;;0.10;95.83;99942.53;5030938;28;20131;-48
2021/11/29 05:47:35;;;;;;;46.20;27.23;;;;;;;0.13;96.09;99952.63;5031016;28;20081;-50
2021/11/29 05:50:06;;;;;;;39.08;26.63;;;;;;;0.11;96.15;99943.38;5030547;28;20471;-48
2021/11/29 05:52:34;;;;;;;35.28;23.05;;;;;;;0.10;95.82;99939.97;5030547;28;20057;-47
2021/11/29 05:55:01;;;;;;;26.65;17.85;;;;;;;0.09;95.65;99940.91;5030574;28;20057;-47
2021/11/29 05:57:28;;;;;;;26.20;17.98;;;;;;;0.05;95.90;99947.19;5030486;28;20053;-48
2021/11/29 05:59:55;;;;;;;27.58;18.08;;;;;;;0.04;96.37;99948.13;5028716;28;20060;-48
2021/11/29 06:02:22;;;;;;;27.20;19.02;;;;;;;0.09;95.90;99947.78;5015225;28;20599;-47
2021/11/29 06:04:50;;;;;;;31.02;21.52;;;;;;;0.06;96.18;99959.13;5011067;28;20515;-48
2021/11/29 06:07:17;;;;;;;34.33;23.48;;;;;;;0.10;96.54;99947.69;5010982;28;20061;-46
2021/11/29 06:15:36;;;;;;;53.97;34.50;;;;;;;0.32;95.70;99972.75;4968944;28;20416;-47
2021/11/29 06:18:03;;;;;;;61.03;36.72;;;;;;;0.31;96.52;99973.69;4990933;28;20100;-47
2021/11/29 06:20:31;;;;;;;55.22;34.20;;;;;;;0.37;96.33;99969.88;5002346;28;20045;-47
2021/11/29 06:22:59;;;;;;;60.53;37.05;;;;;;;0.31;96.42;99961.66;5025893;23;20057;-46
2021/11/29 06:25:26;;;;;;;45.45;30.73;;;;;;;0.42;95.76;99972.94;5050323;28;20151;-49
2021/11/29 06:27:55;;;;;;;44.72;29.42;;;;;;;0.48;95.71;99973.31;5032435;28;20060;-44
2021/11/29 06:30:22;;;;;;;55.58;33.92;;;;;;;0.42;95.54;99972.94;5034146;28;20050;-47
2021/11/29 06:32:50;;;;;;;60.53;36.95;;;;;;;0.41;95.95;99968.72;5031013;28;20406;-47
2021/11/29 06:35:17;;;;;;;60.88;38.40;;;;;;;0.44;95.37;99966.78;5030963;28;20085;-45
2021/11/29 06:37:48;;;;;;;63.92;35.60;;;;;;;0.41;96.22;99974.69;5030993;28;20076;-43
2021/11/29 06:40:17;;;;;;;59.90;34.58;;;;;;;0.48;95.55;99977.63;5042660;28;20053;-49
2021/11/29 06:42:45;;;;;;;49.83;31.38;;;;;;;0.55;94.92;99984.00;5057505;28;20140;-50
2021/11/29 06:45:11;;;;;;;49.17;31.13;;;;;;;0.50;94.97;99975.78;5053366;28;20053;-43
2021/11/29 06:47:41;;;;;;;58.78;33.35;;;;;;;0.46;95.11;99974.38;5051963;28;20080;-46
2021/11/29 06:50:08;;;;;;;49.58;29.38;;;;;;;0.52;94.93;99989.38;5051408;28;20410;-44
2021/11/29 06:52:35;;;;;;;46.72;28.35;;;;;;;0.49;94.68;99985.25;5051346;28;20215;-47
2021/11/29 06:55:04;;;;;;;43.47;25.05;;;;;;;0.53;94.42;99988.44;5051189;28;20106;-50
2021/11/29 06:57:30;;;;;;;38.30;22.65;;;;;;;0.55;94.14;99989.97;5052232;28;20119;-49
2021/11/29 06:59:58;;;;;;;32.58;20.75;;;;;;;0.54;93.97;99997.81;5055314;28;20045;-47
2021/11/29 07:02:27;;;;;;;42.00;25.80;;;;;;;0.48;94.41;99993.09;5055574;28;20103;-48
2021/11/29 07:04:54;;;;;;;53.85;27.98;;;;;;;0.50;94.69;99997.19;5055229;28;20068;-44
2021/11/29 07:07:22;;;;;;;48.20;27.48;;;;;;;0.48;94.61;99993.09;5055424;28;20114;-48
2021/11/29 07:09:49;;;;;;;48.33;27.50;;;;;;;0.44;94.79;100004.56;5055051;28;20071;-45
2021/11/29 07:12:18;;;;;;;48.10;27.98;;;;;;;0.45;94.37;100003.63;5054232;28;20080;-45
2021/11/29 07:14:44;;;;;;;44.20;25.50;;;;;;;0.47;94.54;100002.59;5054650;28;20076;-46
2021/11/29 07:17:11;;;;;;;52.55;26.73;;;;;;;0.47;94.54;100004.34;5055584;28;20084;-45
2021/11/29 07:19:38;;;;;;;46.90;25.58;;;;;;;0.44;94.65;100007.13;5055739;28;20091;-43
2021/11/29 07:22:05;;;;;;;47.83;27.23;;;;;;;0.51;94.34;100008.31;5055927;28;20063;-44
2021/11/29 07:24:32;;;;;;;47.47;25.17;;;;;;;0.53;94.29;100017.59;5055325;28;20053;-46
2021/11/29 07:26:59;;;;;;;36.72;19.98;;;;;;;0.62;93.84;100010.97;5055709;28;20102;-51
2021/11/29 07:29:28;;;;;;;41.35;21.73;;;;;;;0.58;93.81;100019.84;5055215;28;20435;-48
2021/11/29 07:31:55;;;;;;;46.42;26.83;;;;;;;0.51;94.30;100026.34;5055201;28;20099;-44
2021/11/29 07:34:22;;;;;;;52.55;29.55;;;;;;;0.49;94.59;100025.63;5055370;28;20045;-42
2021/11/29 07:36:48;;;;;;;52.50;28.02;;;;;;;0.52;94.30;100025.41;5055321;28;20131;-48
2021/11/29 07:39:15;;;;;;;60.65;29.23;;;;;;;0.58;94.17;100035.28;5055047;28;20096;-44
2021/11/29 07:41:42;;;;;;;56.95;28.92;;;;;;;0.54;94.76;100036.44;5055370;28;20422;-44
2021/11/29 07:44:09;;;;;;;58.65;30.27;;;;;;;0.57;94.61;100039.59;5055148;28;20048;-47
2021/11/29 07:46:37;;;;;;;61.90;30.52;;;;;;;0.62;94.38;100036.72;5055272;28;20354;-46
2021/11/29 07:49:05;;;;;;;61.40;31.70;;;;;;;0.58;94.69;100045.59;5054885;28;20132;-45
2021/11/29 07:51:32;;;;;;;56.38;29.67;;;;;;;0.61;94.66;100045.38;5055206;28;20055;-48
2021/11/29 07:53:59;;;;;;;63.60;32.47;;;;;;;0.57;95.09;100043.94;5054736;28;20083;-48
2021/11/29 07:56:25;;;;;;;62.53;29.58;;;;;;;0.59;94.74;100047.22;5054615;28;20084;-42
2021/11/29 07:58:52;;;;;;;55.25;28.85;;;;;;;0.60;94.63;100048.88;5054606;28;20067;-43
2021/11/29 08:01:19;;;;;;;53.35;27.88;;;;;;;0.56;95.03;100048.25;5054812;28;20084;-45
2021/11/29 08:03:47;;;;;;;54.50;26.60;;;;;;;0.63;94.59;100058.97;5055012;28;20087;-51
2021/11/29 08:06:14;;;;;;;47.33;25.98;;;;;;;0.64;94.59;100052.88;5054350;28;20099;-49
2021/11/29 08:08:43;;;;;;;51.10;24.83;;;;;;;0.72;94.39;100066.06;5053628;28;20059;-44
2021/11/29 08:11:09;;;;;;;48.85;24.73;;;;;;;0.68;94.72;100069.75;5053738;28;20052;-44
2021/11/29 08:13:36;;;;;;;50.22;26.10;;;;;;;0.81;94.25;100068.00;5054194;28;20143;-48
2021/11/29 08:16:03;;;;;;;47.00;23.92;;;;;;;0.80;93.98;100066.34;5054132;28;20386;-49
2021/11/29 08:18:31;;;;;;;46.67;22.63;;;;;;;0.84;93.99;100069.53;5054226;28;20080;-47
2021/11/29 08:20:59;;;;;;;45.38;22.13;;;;;;;0.87;93.79;100080.44;5054182;28;20052;-46
2021/11/29 08:23:26;;;;;;;40.60;22.48;;;;;;;0.91;93.61;100079.28;5054161;28;20048;-46
2021/11/29 08:25:52;;;;;;;38.33;20.42;;;;;;;0.96;93.91;100073.78;5054389;28;20088;-49
2021/11/29 08:28:19;;;;;;;49.80;22.90;;;;;;;0.98;93.60;100079.66;5054169;28;20148;-44
2021/11/29 08:30:46;;;;;;;45.25;21.92;;;;;;;1.08;93.40;100079.84;5053882;28;20296;-47
2021/11/29 08:33:13;;;;;;;47.90;21.23;;;;;;;1.04;93.84;100086.97;5053850;28;20045;-45
2021/11/29 08:35:40;;;;;;;45.83;21.83;;;;;;;1.15;93.42;100097.34;5043639;28;20056;-50
2021/11/29 08:38:09;;;;;;;38.45;20.25;;;;;;;1.08;93.09;100088.38;5034670;28;20085;-46
2021/11/29 08:40:36;;;;;;;40.92;21.13;;;;;;;1.15;93.61;100089.59;5048126;28;20761;-47
2021/11/29 08:43:09;;;;;;;39.22;22.05;;;;;;;1.16;93.27;100093.81;5057476;28;20407;-48
2021/11/29 08:45:36;;;;;;;47.65;21.52;;;;;;;1.13;93.29;100093.22;5053748;28;20473;-47
2021/11/29 08:48:05;;;;;;;40.22;20.95;;;;;;;1.13;92.95;100098.38;5053392;28;20393;-44
2021/11/29 08:50:32;;;;;;;36.15;20.23;;;;;;;1.21;93.11;100102.06;5053395;28;20080;-46
2021/11/29 08:53:00;;;;;;;34.80;19.42;;;;;;;1.30;92.62;100101.41;5053094;28;20076;-44
2021/11/29 08:55:29;;;;;;;43.05;19.85;;;;;;;1.42;92.53;100110.00;5046443;28;20407;-50
2021/11/29 08:57:57;;;;;;;32.55;18.40;;;;;;;1.39;92.13;100110.25;5035279;28;20471;-51
2021/11/29 09:00:24;;;;;;;35.25;19.42;;;;;;;1.45;92.03;100103.78;5052356;28;20076;-51
2021/11/29 09:02:50;;;;;;;38.20;18.60;;;;;;;1.66;91.85;100113.38;5053973;28;20143;-46
2021/11/29 09:05:18;;;;;;;30.95;18.38;;;;;;;1.76;91.56;100104.97;5051760;28;20053;-47
2021/11/29 09:07:45;;;;;;;32.55;17.83;;;;;;;1.79;91.04;100107.34;5048687;28;20067;-46
2021/11/29 09:10:13;;;;;;;36.45;20.15;;;;;;;1.82;91.17;100110.50;5053373;28;20037;-47
2021/11/29 09:12:41;;;;;;;32.38;18.17;;;;;;;2.07;90.28;100106.09;5053170;28;20128;-50
2021/11/29 09:15:11;;;;;;;32.38;17.70;;;;;;;2.11;89.83;100097.19;5053254;28;20045;-44
2021/11/29 09:17:38;;;;;;;29.88;17.17;;;;;;;2.07;89.82;100101.75;5052953;28;20451;-49
2021/11/29 09:20:06;;;;;;;30.42;16.58;;;;;;;2.03;90.26;100099.53;5052573;28;20143;-50
2021/11/29 09:22:32;;;;;;;30.00;17.13;;;;;;;1.89;90.51;100108.31;5052671;28;20076;-46
2021/11/29 09:25:00;;;;;;;33.13;17.00;;;;;;;1.91;90.42;100119.31;5052548;28;20091;-49
2021/11/29 09:27:27;;;;;;;26.48;16.67;;;;;;;1.88;90.56;100111.81;5053019;28;20426;-47
2021/11/29 09:29:55;;;;;;;29.23;17.67;;;;;;;1.93;90.27;100115.69;5053079;28;20080;-46
2021/11/29 09:32:22;;;;;;;29.05;17.08;;;;;;;1.98;90.02;100116.16;5052730;28;20084;-45
2021/11/29 09:34:49;;;;;;;27.60;15.73;;;;;;;1.96;90.14;100122.38;5052617;28;20131;-45
2021/11/29 09:37:18;;;;;;;30.08;15.35;;;;;;;2.00;90.05;100110.88;5052628;28;20067;-45
2021/11/29 09:39:45;;;;;;;27.17;14.55;;;;;;;2.02;89.61;100131.41;5052385;28;20495;-45
2021/11/29 09:42:12;;;;;;;26.15;15.20;;;;;;;2.05;89.82;100134.59;5052566;28;20079;-46
2021/11/29 09:44:39;;;;;;;29.98;14.45;;;;;;;1.96;90.64;100132.69;5052113;28;20179;-44
2021/11/29 09:47:07;;;;;;;27.20;15.18;;;;;;;1.90;91.08;100136.53;5052362;28;20088;-49
2021/11/29 09:49:34;;;;;;;21.13;13.63;;;;;;;1.85;91.38;100135.25;5052295;28;20151;-45
2021/11/29 09:52:01;;;;;;;25.52;14.55;;;;;;;1.97;91.34;100137.75;5052177;28;20466;-46
2021/11/29 09:54:28;;;;;;;27.63;14.77;;;;;;;1.97;91.42;100149.81;5052423;28;20480;-45
2021/11/29 09:56:56;;;;;;;23.00;14.95;;;;;;;1.92;91.42;100134.66;5052009;28;20576;-45
2021/11/29 09:59:24;;;;;;;29.90;16.20;;;;;;;1.92;91.72;100145.00;5052165;28;20110;-52
2021/11/29 10:01:51;;;;;;;29.70;17.27;;;;;;;1.95;91.73;100143.94;5052019;28;20544;-49
2021/11/29 10:04:20;;;;;;;42.83;19.92;;;;;;;1.94;91.98;100150.88;5052128;28;20045;-48
2021/11/29 10:06:53;;;;;;;38.85;21.55;;;;;;;2.02;92.38;100144.31;5051775;28;20084;-47
2021/11/29 10:09:33;;;;;;;33.72;20.80;;;;;;;1.98;93.06;100133.41;5051949;28;20052;-46
2021/11/29 10:12:21;;;;;;;38.35;21.90;;;;;;;2.03;92.88;100140.81;5052151;28;20052;-50
2021/11/29 10:15:12;;;;;;;39.00;21.85;;;;;;;2.05;92.67;100139.75;5051678;28;20091;-50
2021/11/29 10:17:44;;;;;;;38.42;22.77;;;;;;;2.16;92.65;100139.78;5042740;28;20124;-47
2021/11/29 10:20:13;;;;;;;44.92;25.13;;;;;;;2.22;92.65;100133.34;5043223;28;20396;-45
2021/11/29 10:22:41;;;;;;;41.13;24.08;;;;;;;2.25;92.49;100130.53;5050753;28;20084;-46
2021/11/29 10:25:17;;;;;;;39.40;23.30;;;;;;;2.36;92.58;100137.50;5050721;28;20087;-49
2021/11/29 10:27:46;;;;;;;40.70;23.83;;;;;;;2.39;92.44;100135.47;5051127;28;20053;-47
2021/11/29 10:30:17;;;;;;;36.67;21.88;;;;;;;2.47;92.28;100140.88;5051236;28;20084;-46
2021/11/29 10:32:46;;;;;;;35.55;18.45;;;;;;;2.58;91.51;100134.91;5051242;28;20114;-48
2021/11/29 10:35:21;;;;;;;30.88;19.02;;;;;;;2.54;91.32;100139.47;5051075;28;20092;-47
2021/11/29 10:37:51;;;;;;;29.10;16.45;;;;;;;2.61;90.99;100147.59;5051313;28;20083;-47
2021/11/29 10:40:20;;;;;;;25.67;16.15;;;;;;;2.64;90.85;100152.53;5051214;28;20059;-47
2021/11/29 10:42:48;;;;;;;23.70;14.65;;;;;;;2.56;90.89;100154.84;5051486;28;20045;-44
2021/11/29 10:45:27;;;;;;;26.92;15.80;;;;;;;2.50;90.53;100150.97;5051541;28;20049;-44
2021/11/29 10:47:56;;;;;;;25.77;13.93;;;;;;;2.46;91.49;100152.16;5051092;28;20111;-47
2021/11/29 10:50:29;;;;;;;26.38;14.70;;;;;;;2.52;91.17;100156.03;5051167;28;20091;-45
2021/11/29 10:53:10;;;;;;;29.77;13.35;;;;;;;2.59;91.07;100159.78;5051954;28;20049;-47
2021/11/29 10:56:03;;;;;;;30.20;14.60;;;;;;;2.49;91.55;100164.00;5051266;28;20080;-48
2021/11/29 10:58:49;;;;;;;25.00;14.80;;;;;;;2.53;91.39;100171.41;5051364;28;20052;-45
2021/11/29 11:01:18;;;;;;;25.55;13.70;;;;;;;2.56;91.44;100170.34;5031821;28;20049;-44
2021/11/29 11:03:54;;;;;;;21.65;13.25;;;;;;;2.51;91.35;100177.63;5032395;28;20100;-44
2021/11/29 11:06:28;;;;;;;22.08;13.40;;;;;;;2.51;91.04;100182.78;5032197;28;20164;-45
2021/11/29 11:08:56;;;;;;;24.33;13.45;;;;;;;2.55;91.80;100194.53;5030736;28;20124;-45
2021/11/29 11:11:32;;;;;;;29.55;14.68;;;;;;;2.59;91.46;100193.38;5030644;28;20081;-45
2021/11/29 11:14:00;;;;;;;28.38;13.50;;;;;;;2.59;91.25;100195.97;5030773;28;20137;-45
2021/11/29 11:16:45;;;;;;;30.27;13.88;;;;;;;2.52;91.56;100205.09;5030028;28;20045;-46
2021/11/29 11:19:20;;;;;;;28.83;13.13;;;;;;;2.53;91.96;100206.75;5029836;28;20551;-47
2021/11/29 11:21:49;;;;;;;26.00;14.48;;;;;;;2.54;92.26;100213.56;5030496;28;20452;-49
2021/11/29 11:24:21;;;;;;;28.10;15.20;;;;;;;2.55;92.13;100215.19;5031195;28;20049;-47
2021/11/29 11:26:48;;;;;;;26.67;14.63;;;;;;;2.52;91.96;100210.25;5031382;28;20084;-45
2021/11/29 11:29:31;;;;;;;37.97;13.73;;;;;;;2.54;92.53;100218.72;5031455;28;20057;-47
2021/11/29 11:32:09;;;;;;;27.90;14.68;;;;;;;2.63;92.36;100215.44;5031285;28;20057;-50